sensor_id;sensor_type;location;lat;lon;timestamp;temperature;humidity
50606;DHT22;36557;53.572;10.170;2024-01-06T00:01:29;-0.60;99.90
50606;DHT22;36557;53.572;10.170;2024-01-06T00:03:55;-0.60;99.90
50606;DHT22;36557;53.572;10.170;2024-01-06T00:06:21;-0.50;99.90
50606;DHT22;36557;53.572;10.170;2024-01-06T00:08:47;-0.50;99.90
50606;DHT22;36557;53.572;10.170;2024-01-06T00:11:22;-0.50;99.90
50606;DHT22;36557;53.572;10.170;2024-01-06T00:13:47;-0.50;99.90
50606;DHT22;36557;53.572;10.170;2024-01-06T00:16:16;-0.50;99.90
50606;DHT22;36557;53.572;10.170;2024-01-06T00:18:41;-0.50;99.90
50606;DHT22;36557;53.572;10.170;2024-01-06T00:21:08;-0.50;99.90
50606;DHT22;36557;53.572;10.170;2024-01-06T00:23:33;-0.50;99.90
50606;DHT22;36557;53.572;10.170;2024-01-06T00:25:59;-0.50;99.90
50606;DHT22;36557;53.572;10.170;2024-01-06T00:28:25;-0.50;99.90
50606;DHT22;36557;53.572;10.170;2024-01-06T00:30:50;-0.50;99.90
50606;DHT22;36557;53.572;10.170;2024-01-06T00:33:16;-0.50;99.90
50606;DHT22;36557;53.572;10.170;2024-01-06T00:35:42;-0.60;99.90
50606;DHT22;36557;53.572;10.170;2024-01-06T00:38:08;-0.50;99.90
50606;DHT22;36557;53.572;10.170;2024-01-06T00:40:34;-0.50;99.90
50606;DHT22;36557;53.572;10.170;2024-01-06T00:42:59;-0.50;99.90
50606;DHT22;36557;53.572;10.170;2024-01-06T00:45:25;-0.50;99.90
50606;DHT22;36557;53.572;10.170;2024-01-06T00:47:51;-0.50;99.90
50606;DHT22;36557;53.572;10.170;2024-01-06T00:50:18;-0.50;99.90
50606;DHT22;36557;53.572;10.170;2024-01-06T00:52:44;-0.40;99.90
50606;DHT22;36557;53.572;10.170;2024-01-06T00:55:11;-0.50;99.90
50606;DHT22;36557;53.572;10.170;2024-01-06T00:57:36;-0.50;99.90
50606;DHT22;36557;53.572;10.170;2024-01-06T01:00:04;-0.50;99.90
50606;DHT22;36557;53.572;10.170;2024-01-06T01:02:31;-0.50;99.90
50606;DHT22;36557;53.572;10.170;2024-01-06T01:04:57;-0.50;99.90
50606;DHT22;36557;53.572;10.170;2024-01-06T01:07:23;-0.50;99.90
50606;DHT22;36557;53.572;10.170;2024-01-06T01:09:49;-0.60;99.90
50606;DHT22;36557;53.572;10.170;2024-01-06T01:12:15;-0.50;99.90
50606;DHT22;36557;53.572;10.170;2024-01-06T01:14:40;-0.50;99.90
50606;DHT22;36557;53.572;10.170;2024-01-06T01:17:06;-0.50;99.90
50606;DHT22;36557;53.572;10.170;2024-01-06T01:19:32;-0.50;99.90
50606;DHT22;36557;53.572;10.170;2024-01-06T01:21:57;-0.50;99.90
50606;DHT22;36557;53.572;10.170;2024-01-06T01:24:23;-0.40;99.90
50606;DHT22;36557;53.572;10.170;2024-01-06T01:26:49;-0.50;99.90
50606;DHT22;36557;53.572;10.170;2024-01-06T01:29:18;-0.40;99.90
50606;DHT22;36557;53.572;10.170;2024-01-06T01:31:46;-0.50;99.90
50606;DHT22;36557;53.572;10.170;2024-01-06T01:34:12;-0.50;99.90
50606;DHT22;36557;53.572;10.170;2024-01-06T01:36:38;-0.50;99.90
50606;DHT22;36557;53.572;10.170;2024-01-06T01:39:03;-0.50;99.90
50606;DHT22;36557;53.572;10.170;2024-01-06T01:41:29;-0.50;99.90
50606;DHT22;36557;53.572;10.170;2024-01-06T01:43:55;-0.50;99.90
50606;DHT22;36557;53.572;10.170;2024-01-06T01:46:27;-0.50;99.90
50606;DHT22;36557;53.572;10.170;2024-01-06T01:48:58;-0.50;99.90
50606;DHT22;36557;53.572;10.170;2024-01-06T01:51:27;-0.50;99.90
50606;DHT22;36557;53.572;10.170;2024-01-06T01:53:53;-0.50;99.90
50606;DHT22;36557;53.572;10.170;2024-01-06T01:56:19;-0.50;99.90
50606;DHT22;36557;53.572;10.170;2024-01-06T01:58:45;-0.40;99.90
50606;DHT22;36557;53.572;10.170;2024-01-06T02:01:11;-0.50;99.90
50606;DHT22;36557;53.572;10.170;2024-01-06T02:03:37;-0.50;99.90
50606;DHT22;36557;53.572;10.170;2024-01-06T02:06:06;-0.60;99.90
50606;DHT22;36557;53.572;10.170;2024-01-06T02:08:32;-0.50;99.90
50606;DHT22;36557;53.572;10.170;2024-01-06T02:10:57;-0.50;99.90
50606;DHT22;36557;53.572;10.170;2024-01-06T02:13:23;-0.50;99.90
50606;DHT22;36557;53.572;10.170;2024-01-06T02:15:50;-0.50;99.90
50606;DHT22;36557;53.572;10.170;2024-01-06T02:18:16;-0.50;99.90
50606;DHT22;36557;53.572;10.170;2024-01-06T02:20:43;-0.50;99.90
50606;DHT22;36557;53.572;10.170;2024-01-06T02:23:10;-0.50;99.90
50606;DHT22;36557;53.572;10.170;2024-01-06T02:25:35;-0.50;99.90
50606;DHT22;36557;53.572;10.170;2024-01-06T02:28:01;-0.50;99.90
50606;DHT22;36557;53.572;10.170;2024-01-06T02:30:27;-0.50;99.90
50606;DHT22;36557;53.572;10.170;2024-01-06T02:32:53;-0.50;99.90
50606;DHT22;36557;53.572;10.170;2024-01-06T02:35:20;-0.50;99.90
50606;DHT22;36557;53.572;10.170;2024-01-06T02:37:46;-0.60;99.90
50606;DHT22;36557;53.572;10.170;2024-01-06T02:40:12;-0.60;99.90
50606;DHT22;36557;53.572;10.170;2024-01-06T02:42:38;-0.60;99.90
50606;DHT22;36557;53.572;10.170;2024-01-06T02:45:05;-0.60;99.90
50606;DHT22;36557;53.572;10.170;2024-01-06T02:47:31;-0.60;99.90
50606;DHT22;36557;53.572;10.170;2024-01-06T02:49:56;-0.60;99.90
50606;DHT22;36557;53.572;10.170;2024-01-06T02:52:22;-0.60;99.90
50606;DHT22;36557;53.572;10.170;2024-01-06T02:54:48;-0.60;99.90
50606;DHT22;36557;53.572;10.170;2024-01-06T02:57:14;-0.60;99.90
50606;DHT22;36557;53.572;10.170;2024-01-06T02:59:40;-0.60;99.90
50606;DHT22;36557;53.572;10.170;2024-01-06T03:02:06;-0.60;99.90
50606;DHT22;36557;53.572;10.170;2024-01-06T03:04:31;-0.60;99.90
50606;DHT22;36557;53.572;10.170;2024-01-06T03:06:57;-0.60;99.90
50606;DHT22;36557;53.572;10.170;2024-01-06T03:09:23;-0.60;99.90
50606;DHT22;36557;53.572;10.170;2024-01-06T03:11:48;-0.60;99.90
50606;DHT22;36557;53.572;10.170;2024-01-06T03:14:14;-0.60;99.90
50606;DHT22;36557;53.572;10.170;2024-01-06T03:16:40;-0.70;99.90
50606;DHT22;36557;53.572;10.170;2024-01-06T03:19:06;-0.60;99.90
50606;DHT22;36557;53.572;10.170;2024-01-06T03:21:31;-0.60;99.90
50606;DHT22;36557;53.572;10.170;2024-01-06T03:23:57;-0.60;99.90
50606;DHT22;36557;53.572;10.170;2024-01-06T03:26:23;-0.60;99.90
50606;DHT22;36557;53.572;10.170;2024-01-06T03:28:49;-0.60;99.90
50606;DHT22;36557;53.572;10.170;2024-01-06T03:31:15;-0.60;99.90
50606;DHT22;36557;53.572;10.170;2024-01-06T03:33:43;-0.70;99.90
50606;DHT22;36557;53.572;10.170;2024-01-06T03:36:09;-0.60;99.90
50606;DHT22;36557;53.572;10.170;2024-01-06T03:38:35;-0.60;99.90
50606;DHT22;36557;53.572;10.170;2024-01-06T03:41:01;-0.60;99.90
50606;DHT22;36557;53.572;10.170;2024-01-06T03:43:26;-0.70;99.90
50606;DHT22;36557;53.572;10.170;2024-01-06T03:45:52;-0.70;99.90
50606;DHT22;36557;53.572;10.170;2024-01-06T03:48:18;-0.70;99.90
50606;DHT22;36557;53.572;10.170;2024-01-06T03:50:44;-0.70;99.90
50606;DHT22;36557;53.572;10.170;2024-01-06T03:53:09;-0.70;99.90
50606;DHT22;36557;53.572;10.170;2024-01-06T03:55:35;-0.80;99.90
50606;DHT22;36557;53.572;10.170;2024-01-06T03:58:01;-0.60;99.90
50606;DHT22;36557;53.572;10.170;2024-01-06T04:00:26;-0.70;99.90
50606;DHT22;36557;53.572;10.170;2024-01-06T04:02:52;-0.60;99.90
50606;DHT22;36557;53.572;10.170;2024-01-06T04:05:18;-0.70;99.90
50606;DHT22;36557;53.572;10.170;2024-01-06T04:07:43;-0.70;99.90
50606;DHT22;36557;53.572;10.170;2024-01-06T04:10:09;-0.60;99.90
50606;DHT22;36557;53.572;10.170;2024-01-06T04:12:35;-0.70;99.90
50606;DHT22;36557;53.572;10.170;2024-01-06T04:15:01;-0.60;99.90
50606;DHT22;36557;53.572;10.170;2024-01-06T04:17:26;-0.70;99.90
50606;DHT22;36557;53.572;10.170;2024-01-06T04:19:52;-0.70;99.90
50606;DHT22;36557;53.572;10.170;2024-01-06T04:22:19;-0.60;99.90
50606;DHT22;36557;53.572;10.170;2024-01-06T04:24:44;-0.70;99.90
50606;DHT22;36557;53.572;10.170;2024-01-06T04:27:10;-0.70;99.90
50606;DHT22;36557;53.572;10.170;2024-01-06T04:29:36;-0.70;99.90
50606;DHT22;36557;53.572;10.170;2024-01-06T04:32:02;-0.70;99.90
50606;DHT22;36557;53.572;10.170;2024-01-06T04:34:27;-0.60;99.90
50606;DHT22;36557;53.572;10.170;2024-01-06T04:36:53;-0.70;99.90
50606;DHT22;36557;53.572;10.170;2024-01-06T04:39:19;-0.60;99.90
50606;DHT22;36557;53.572;10.170;2024-01-06T04:41:44;-0.70;99.90
50606;DHT22;36557;53.572;10.170;2024-01-06T04:44:10;-0.60;99.90
50606;DHT22;36557;53.572;10.170;2024-01-06T04:46:36;-0.70;99.90
50606;DHT22;36557;53.572;10.170;2024-01-06T04:49:02;-0.70;99.90
50606;DHT22;36557;53.572;10.170;2024-01-06T04:51:28;-0.70;99.90
50606;DHT22;36557;53.572;10.170;2024-01-06T04:53:53;-0.70;99.90
50606;DHT22;36557;53.572;10.170;2024-01-06T04:56:19;-0.60;99.90
50606;DHT22;36557;53.572;10.170;2024-01-06T04:58:45;-0.70;99.90
50606;DHT22;36557;53.572;10.170;2024-01-06T05:01:11;-0.70;99.90
50606;DHT22;36557;53.572;10.170;2024-01-06T05:03:37;-0.70;99.90
50606;DHT22;36557;53.572;10.170;2024-01-06T05:06:03;-0.70;99.90
50606;DHT22;36557;53.572;10.170;2024-01-06T05:08:28;-0.70;99.90
50606;DHT22;36557;53.572;10.170;2024-01-06T05:10:56;-0.70;99.90
50606;DHT22;36557;53.572;10.170;2024-01-06T05:13:22;-0.70;99.90
50606;DHT22;36557;53.572;10.170;2024-01-06T05:15:47;-0.70;99.90
50606;DHT22;36557;53.572;10.170;2024-01-06T05:18:13;-0.70;99.90
50606;DHT22;36557;53.572;10.170;2024-01-06T05:20:39;-0.70;99.90
50606;DHT22;36557;53.572;10.170;2024-01-06T05:23:06;-0.70;99.90
50606;DHT22;36557;53.572;10.170;2024-01-06T05:25:32;-0.80;99.90
50606;DHT22;36557;53.572;10.170;2024-01-06T05:27:58;-0.70;99.90
50606;DHT22;36557;53.572;10.170;2024-01-06T05:30:24;-0.80;99.90
50606;DHT22;36557;53.572;10.170;2024-01-06T05:32:50;-0.80;99.90
50606;DHT22;36557;53.572;10.170;2024-01-06T05:35:18;-0.80;99.90
50606;DHT22;36557;53.572;10.170;2024-01-06T05:37:44;-0.80;99.90
50606;DHT22;36557;53.572;10.170;2024-01-06T05:40:10;-0.80;99.90
50606;DHT22;36557;53.572;10.170;2024-01-06T05:42:37;-0.80;99.90
50606;DHT22;36557;53.572;10.170;2024-01-06T05:45:02;-0.80;99.90
50606;DHT22;36557;53.572;10.170;2024-01-06T05:47:28;-0.80;99.90
50606;DHT22;36557;53.572;10.170;2024-01-06T05:49:54;-0.80;99.90
50606;DHT22;36557;53.572;10.170;2024-01-06T05:52:19;-0.80;99.90
50606;DHT22;36557;53.572;10.170;2024-01-06T05:54:45;-0.80;99.90
50606;DHT22;36557;53.572;10.170;2024-01-06T05:57:11;-0.80;99.90
50606;DHT22;36557;53.572;10.170;2024-01-06T05:59:37;-0.70;99.90
50606;DHT22;36557;53.572;10.170;2024-01-06T06:02:03;-0.80;99.90
50606;DHT22;36557;53.572;10.170;2024-01-06T06:04:29;-0.80;99.90
50606;DHT22;36557;53.572;10.170;2024-01-06T06:06:54;-0.80;99.90
50606;DHT22;36557;53.572;10.170;2024-01-06T06:09:20;-0.80;99.90
50606;DHT22;36557;53.572;10.170;2024-01-06T06:11:47;-0.70;99.90
50606;DHT22;36557;53.572;10.170;2024-01-06T06:14:13;-0.70;99.90
50606;DHT22;36557;53.572;10.170;2024-01-06T06:16:39;-0.80;99.90
50606;DHT22;36557;53.572;10.170;2024-01-06T06:19:05;-0.80;99.90
50606;DHT22;36557;53.572;10.170;2024-01-06T06:21:31;-0.80;99.90
50606;DHT22;36557;53.572;10.170;2024-01-06T06:23:57;-0.80;99.90
50606;DHT22;36557;53.572;10.170;2024-01-06T06:26:23;-0.80;99.90
50606;DHT22;36557;53.572;10.170;2024-01-06T06:28:48;-0.80;99.90
50606;DHT22;36557;53.572;10.170;2024-01-06T06:31:14;-0.80;99.90
50606;DHT22;36557;53.572;10.170;2024-01-06T06:33:40;-0.70;99.90
50606;DHT22;36557;53.572;10.170;2024-01-06T06:36:06;-0.70;99.90
50606;DHT22;36557;53.572;10.170;2024-01-06T06:38:31;-0.70;99.90
50606;DHT22;36557;53.572;10.170;2024-01-06T06:40:57;-0.80;99.90
50606;DHT22;36557;53.572;10.170;2024-01-06T06:43:23;-0.80;99.90
50606;DHT22;36557;53.572;10.170;2024-01-06T06:45:48;-0.80;99.90
50606;DHT22;36557;53.572;10.170;2024-01-06T06:48:14;-0.70;99.90
50606;DHT22;36557;53.572;10.170;2024-01-06T06:50:40;-0.80;99.90
50606;DHT22;36557;53.572;10.170;2024-01-06T06:53:08;-0.80;99.90
50606;DHT22;36557;53.572;10.170;2024-01-06T06:55:33;-0.80;99.90
50606;DHT22;36557;53.572;10.170;2024-01-06T06:57:59;-0.80;99.90
50606;DHT22;36557;53.572;10.170;2024-01-06T07:00:25;-0.80;99.90
50606;DHT22;36557;53.572;10.170;2024-01-06T07:02:50;-0.80;99.90
50606;DHT22;36557;53.572;10.170;2024-01-06T07:05:16;-0.80;99.90
50606;DHT22;36557;53.572;10.170;2024-01-06T07:07:42;-0.80;99.90
50606;DHT22;36557;53.572;10.170;2024-01-06T07:10:12;-0.80;99.90
50606;DHT22;36557;53.572;10.170;2024-01-06T07:12:38;-0.80;99.90
50606;DHT22;36557;53.572;10.170;2024-01-06T07:15:04;-0.80;99.90
50606;DHT22;36557;53.572;10.170;2024-01-06T07:17:30;-0.80;99.90
50606;DHT22;36557;53.572;10.170;2024-01-06T07:19:55;-0.80;99.90
50606;DHT22;36557;53.572;10.170;2024-01-06T07:22:21;-0.80;99.90
50606;DHT22;36557;53.572;10.170;2024-01-06T07:24:47;-0.80;99.90
50606;DHT22;36557;53.572;10.170;2024-01-06T07:27:13;-0.80;99.90
50606;DHT22;36557;53.572;10.170;2024-01-06T07:29:38;-0.80;99.90
50606;DHT22;36557;53.572;10.170;2024-01-06T07:32:04;-0.80;99.90
50606;DHT22;36557;53.572;10.170;2024-01-06T07:34:32;-0.70;99.90
50606;DHT22;36557;53.572;10.170;2024-01-06T07:36:58;-0.80;99.90
50606;DHT22;36557;53.572;10.170;2024-01-06T07:39:24;-0.70;99.90
50606;DHT22;36557;53.572;10.170;2024-01-06T07:41:50;-0.70;99.90
50606;DHT22;36557;53.572;10.170;2024-01-06T07:44:15;-0.70;99.90
50606;DHT22;36557;53.572;10.170;2024-01-06T07:46:44;-0.70;99.90
50606;DHT22;36557;53.572;10.170;2024-01-06T07:49:09;-0.70;99.90
50606;DHT22;36557;53.572;10.170;2024-01-06T07:51:35;-0.70;99.90
50606;DHT22;36557;53.572;10.170;2024-01-06T07:54:01;-0.80;99.90
50606;DHT22;36557;53.572;10.170;2024-01-06T07:56:27;-0.80;99.90
50606;DHT22;36557;53.572;10.170;2024-01-06T07:58:53;-0.80;99.90
50606;DHT22;36557;53.572;10.170;2024-01-06T08:01:19;-0.70;99.90
50606;DHT22;36557;53.572;10.170;2024-01-06T08:03:44;-0.80;99.90
50606;DHT22;36557;53.572;10.170;2024-01-06T08:06:10;-0.70;99.90
50606;DHT22;36557;53.572;10.170;2024-01-06T08:08:36;-0.70;99.90
50606;DHT22;36557;53.572;10.170;2024-01-06T08:11:02;-0.70;99.90
50606;DHT22;36557;53.572;10.170;2024-01-06T08:13:28;-0.70;99.90
50606;DHT22;36557;53.572;10.170;2024-01-06T08:15:53;-0.70;99.90
50606;DHT22;36557;53.572;10.170;2024-01-06T08:18:19;-0.70;99.90
50606;DHT22;36557;53.572;10.170;2024-01-06T08:20:46;-0.70;99.90
50606;DHT22;36557;53.572;10.170;2024-01-06T08:23:12;-0.70;99.90
50606;DHT22;36557;53.572;10.170;2024-01-06T08:25:38;-0.60;99.90
50606;DHT22;36557;53.572;10.170;2024-01-06T08:28:04;-0.70;99.90
50606;DHT22;36557;53.572;10.170;2024-01-06T08:30:30;-0.70;99.90
50606;DHT22;36557;53.572;10.170;2024-01-06T08:32:56;-0.70;99.90
50606;DHT22;36557;53.572;10.170;2024-01-06T08:35:21;-0.60;99.90
50606;DHT22;36557;53.572;10.170;2024-01-06T08:37:47;-0.60;99.90
50606;DHT22;36557;53.572;10.170;2024-01-06T08:40:13;-0.60;99.90
50606;DHT22;36557;53.572;10.170;2024-01-06T08:42:39;-0.70;99.90
50606;DHT22;36557;53.572;10.170;2024-01-06T08:45:05;-0.70;99.90
50606;DHT22;36557;53.572;10.170;2024-01-06T08:47:30;-0.70;99.90
50606;DHT22;36557;53.572;10.170;2024-01-06T08:49:56;-0.70;99.90
50606;DHT22;36557;53.572;10.170;2024-01-06T08:52:22;-0.70;99.90
50606;DHT22;36557;53.572;10.170;2024-01-06T08:54:48;-0.70;99.90
50606;DHT22;36557;53.572;10.170;2024-01-06T08:57:15;-0.60;99.90
50606;DHT22;36557;53.572;10.170;2024-01-06T08:59:40;-0.60;99.90
50606;DHT22;36557;53.572;10.170;2024-01-06T09:02:06;-0.60;99.90
50606;DHT22;36557;53.572;10.170;2024-01-06T09:04:33;-0.60;99.90
50606;DHT22;36557;53.572;10.170;2024-01-06T09:06:58;-0.60;99.90
50606;DHT22;36557;53.572;10.170;2024-01-06T09:09:24;-0.60;99.90
50606;DHT22;36557;53.572;10.170;2024-01-06T09:11:50;-0.50;99.90
50606;DHT22;36557;53.572;10.170;2024-01-06T09:14:18;-0.60;99.90
50606;DHT22;36557;53.572;10.170;2024-01-06T09:16:44;-0.60;99.90
50606;DHT22;36557;53.572;10.170;2024-01-06T09:19:10;-0.60;99.90
50606;DHT22;36557;53.572;10.170;2024-01-06T09:21:36;-0.60;99.90
50606;DHT22;36557;53.572;10.170;2024-01-06T09:24:02;-0.60;99.90
50606;DHT22;36557;53.572;10.170;2024-01-06T09:26:32;-0.50;99.90
50606;DHT22;36557;53.572;10.170;2024-01-06T09:29:00;-0.50;99.90
50606;DHT22;36557;53.572;10.170;2024-01-06T09:31:25;-0.50;99.90
50606;DHT22;36557;53.572;10.170;2024-01-06T09:33:51;-0.40;99.90
50606;DHT22;36557;53.572;10.170;2024-01-06T09:36:17;-0.40;99.90
50606;DHT22;36557;53.572;10.170;2024-01-06T09:38:44;-0.40;99.90
50606;DHT22;36557;53.572;10.170;2024-01-06T09:41:09;-0.40;99.90
50606;DHT22;36557;53.572;10.170;2024-01-06T09:43:35;-0.30;99.90
50606;DHT22;36557;53.572;10.170;2024-01-06T09:46:17;-0.30;99.90
50606;DHT22;36557;53.572;10.170;2024-01-06T09:48:48;-0.30;99.90
50606;DHT22;36557;53.572;10.170;2024-01-06T09:51:16;-0.30;99.90
50606;DHT22;36557;53.572;10.170;2024-01-06T09:53:58;-0.40;99.90
50606;DHT22;36557;53.572;10.170;2024-01-06T09:56:26;-0.40;99.90
50606;DHT22;36557;53.572;10.170;2024-01-06T09:58:52;-0.40;99.90
50606;DHT22;36557;53.572;10.170;2024-01-06T10:01:18;-0.20;99.90
50606;DHT22;36557;53.572;10.170;2024-01-06T10:03:44;-0.40;99.90
50606;DHT22;36557;53.572;10.170;2024-01-06T10:06:17;-0.40;99.90
50606;DHT22;36557;53.572;10.170;2024-01-06T10:08:43;-0.40;99.90
50606;DHT22;36557;53.572;10.170;2024-01-06T10:11:09;-0.30;99.90
50606;DHT22;36557;53.572;10.170;2024-01-06T10:13:36;-0.30;99.90
50606;DHT22;36557;53.572;10.170;2024-01-06T10:16:04;-0.20;99.90
50606;DHT22;36557;53.572;10.170;2024-01-06T10:18:31;-0.20;99.90
50606;DHT22;36557;53.572;10.170;2024-01-06T10:20:57;-0.30;99.90
50606;DHT22;36557;53.572;10.170;2024-01-06T10:23:23;-0.40;99.90
50606;DHT22;36557;53.572;10.170;2024-01-06T10:25:56;-0.30;99.90
50606;DHT22;36557;53.572;10.170;2024-01-06T10:28:22;-0.30;99.90
50606;DHT22;36557;53.572;10.170;2024-01-06T10:30:54;-0.30;99.90
50606;DHT22;36557;53.572;10.170;2024-01-06T10:33:21;-0.30;99.90
50606;DHT22;36557;53.572;10.170;2024-01-06T10:35:48;-0.30;99.90
50606;DHT22;36557;53.572;10.170;2024-01-06T10:38:14;-0.40;99.90
50606;DHT22;36557;53.572;10.170;2024-01-06T10:41:02;-0.30;99.90
50606;DHT22;36557;53.572;10.170;2024-01-06T10:43:33;-0.30;99.90
50606;DHT22;36557;53.572;10.170;2024-01-06T10:46:06;-0.30;99.90
50606;DHT22;36557;53.572;10.170;2024-01-06T10:48:37;-0.30;99.90
50606;DHT22;36557;53.572;10.170;2024-01-06T10:51:11;-0.30;99.90
50606;DHT22;36557;53.572;10.170;2024-01-06T10:53:40;-0.20;99.90
50606;DHT22;36557;53.572;10.170;2024-01-06T10:56:07;-0.20;99.90
50606;DHT22;36557;53.572;10.170;2024-01-06T10:58:35;-0.20;99.90
50606;DHT22;36557;53.572;10.170;2024-01-06T11:01:09;-0.30;99.90
50606;DHT22;36557;53.572;10.170;2024-01-06T11:03:36;-0.10;99.90
50606;DHT22;36557;53.572;10.170;2024-01-06T11:06:07;-0.20;99.90
50606;DHT22;36557;53.572;10.170;2024-01-06T11:08:43;-0.20;99.90
50606;DHT22;36557;53.572;10.170;2024-01-06T11:11:18;-0.20;99.90
50606;DHT22;36557;53.572;10.170;2024-01-06T11:13:45;-0.30;99.90
50606;DHT22;36557;53.572;10.170;2024-01-06T11:16:35;-0.20;99.90
50606;DHT22;36557;53.572;10.170;2024-01-06T11:19:01;-0.20;99.90
50606;DHT22;36557;53.572;10.170;2024-01-06T11:21:29;-0.30;99.90
50606;DHT22;36557;53.572;10.170;2024-01-06T11:24:25;-0.30;99.90
50606;DHT22;36557;53.572;10.170;2024-01-06T11:26:55;-0.20;99.90
50606;DHT22;36557;53.572;10.170;2024-01-06T11:29:21;-0.30;99.90
50606;DHT22;36557;53.572;10.170;2024-01-06T11:32:18;-0.20;99.90
50606;DHT22;36557;53.572;10.170;2024-01-06T11:34:48;-0.20;99.90
50606;DHT22;36557;53.572;10.170;2024-01-06T11:37:15;-0.10;99.90
50606;DHT22;36557;53.572;10.170;2024-01-06T11:39:44;-0.30;99.90
50606;DHT22;36557;53.572;10.170;2024-01-06T11:42:10;-0.20;99.90
50606;DHT22;36557;53.572;10.170;2024-01-06T11:44:39;-0.30;99.90
50606;DHT22;36557;53.572;10.170;2024-01-06T11:47:10;-0.30;99.90
50606;DHT22;36557;53.572;10.170;2024-01-06T11:49:37;-0.30;99.90
50606;DHT22;36557;53.572;10.170;2024-01-06T11:52:03;-0.30;99.90
50606;DHT22;36557;53.572;10.170;2024-01-06T11:54:29;-0.30;99.90
50606;DHT22;36557;53.572;10.170;2024-01-06T11:56:56;-0.40;99.90
50606;DHT22;36557;53.572;10.170;2024-01-06T11:59:23;-0.30;99.90
50606;DHT22;36557;53.572;10.170;2024-01-06T12:01:48;-0.40;99.90
50606;DHT22;36557;53.572;10.170;2024-01-06T12:04:14;-0.40;99.90
50606;DHT22;36557;53.572;10.170;2024-01-06T12:06:43;-0.40;99.90
50606;DHT22;36557;53.572;10.170;2024-01-06T12:09:12;-0.50;99.90
50606;DHT22;36557;53.572;10.170;2024-01-06T12:11:41;-0.50;99.90
50606;DHT22;36557;53.572;10.170;2024-01-06T12:14:10;-0.50;99.90
50606;DHT22;36557;53.572;10.170;2024-01-06T12:16:36;-0.40;99.90
50606;DHT22;36557;53.572;10.170;2024-01-06T12:19:02;-0.50;99.90
50606;DHT22;36557;53.572;10.170;2024-01-06T12:21:29;-0.50;99.90
50606;DHT22;36557;53.572;10.170;2024-01-06T12:24:15;-0.50;99.90
50606;DHT22;36557;53.572;10.170;2024-01-06T12:26:41;-0.60;99.90
50606;DHT22;36557;53.572;10.170;2024-01-06T12:29:07;-0.60;99.90
50606;DHT22;36557;53.572;10.170;2024-01-06T12:31:33;-0.50;99.90
50606;DHT22;36557;53.572;10.170;2024-01-06T12:33:59;-0.50;99.90
50606;DHT22;36557;53.572;10.170;2024-01-06T12:36:25;-0.50;99.90
50606;DHT22;36557;53.572;10.170;2024-01-06T12:38:51;-0.60;99.90
50606;DHT22;36557;53.572;10.170;2024-01-06T12:41:16;-0.50;99.90
50606;DHT22;36557;53.572;10.170;2024-01-06T12:43:42;-0.50;99.90
50606;DHT22;36557;53.572;10.170;2024-01-06T12:46:08;-0.50;99.90
50606;DHT22;36557;53.572;10.170;2024-01-06T12:48:33;-0.40;99.90
50606;DHT22;36557;53.572;10.170;2024-01-06T12:50:59;-0.40;99.90
50606;DHT22;36557;53.572;10.170;2024-01-06T12:53:25;-0.50;99.90
50606;DHT22;36557;53.572;10.170;2024-01-06T12:55:50;-0.50;99.90
50606;DHT22;36557;53.572;10.170;2024-01-06T12:58:16;-0.50;99.90
50606;DHT22;36557;53.572;10.170;2024-01-06T13:00:42;-0.30;99.90
50606;DHT22;36557;53.572;10.170;2024-01-06T13:03:07;-0.40;99.90
50606;DHT22;36557;53.572;10.170;2024-01-06T13:05:34;-0.50;99.90
50606;DHT22;36557;53.572;10.170;2024-01-06T13:07:59;-0.50;99.90
50606;DHT22;36557;53.572;10.170;2024-01-06T13:10:25;-0.50;99.90
50606;DHT22;36557;53.572;10.170;2024-01-06T13:12:51;-0.50;99.90
50606;DHT22;36557;53.572;10.170;2024-01-06T13:15:17;-0.40;99.90
50606;DHT22;36557;53.572;10.170;2024-01-06T13:17:42;-0.30;99.90
50606;DHT22;36557;53.572;10.170;2024-01-06T13:20:08;-0.30;99.90
50606;DHT22;36557;53.572;10.170;2024-01-06T13:22:34;-0.30;99.90
50606;DHT22;36557;53.572;10.170;2024-01-06T13:25:00;-0.40;99.90
50606;DHT22;36557;53.572;10.170;2024-01-06T13:27:26;-0.40;99.90
50606;DHT22;36557;53.572;10.170;2024-01-06T13:29:54;-0.40;99.90
50606;DHT22;36557;53.572;10.170;2024-01-06T13:32:20;-0.40;99.90
50606;DHT22;36557;53.572;10.170;2024-01-06T13:34:47;-0.50;99.90
50606;DHT22;36557;53.572;10.170;2024-01-06T13:37:13;-0.50;99.90
50606;DHT22;36557;53.572;10.170;2024-01-06T13:39:38;-0.40;99.90
50606;DHT22;36557;53.572;10.170;2024-01-06T13:42:04;-0.40;99.90
50606;DHT22;36557;53.572;10.170;2024-01-06T13:44:30;-0.50;99.90
50606;DHT22;36557;53.572;10.170;2024-01-06T13:46:56;-0.50;99.90
50606;DHT22;36557;53.572;10.170;2024-01-06T13:49:22;-0.60;99.90
50606;DHT22;36557;53.572;10.170;2024-01-06T13:51:49;-0.60;99.90
50606;DHT22;36557;53.572;10.170;2024-01-06T13:54:15;-0.60;99.90
50606;DHT22;36557;53.572;10.170;2024-01-06T13:56:41;-0.70;99.90
50606;DHT22;36557;53.572;10.170;2024-01-06T13:59:07;-0.70;99.90
50606;DHT22;36557;53.572;10.170;2024-01-06T14:01:33;-0.70;99.90
50606;DHT22;36557;53.572;10.170;2024-01-06T14:03:59;-0.70;99.90
50606;DHT22;36557;53.572;10.170;2024-01-06T14:06:26;-0.80;99.90
50606;DHT22;36557;53.572;10.170;2024-01-06T14:08:55;-0.70;99.90
50606;DHT22;36557;53.572;10.170;2024-01-06T14:11:21;-0.70;99.90
50606;DHT22;36557;53.572;10.170;2024-01-06T14:13:47;-0.70;99.90
50606;DHT22;36557;53.572;10.170;2024-01-06T14:16:15;-0.70;99.90
50606;DHT22;36557;53.572;10.170;2024-01-06T14:18:41;-0.70;99.90
50606;DHT22;36557;53.572;10.170;2024-01-06T14:21:09;-0.70;99.90
50606;DHT22;36557;53.572;10.170;2024-01-06T14:23:34;-0.70;99.90
50606;DHT22;36557;53.572;10.170;2024-01-06T14:26:00;-0.80;99.90
50606;DHT22;36557;53.572;10.170;2024-01-06T14:28:26;-0.70;99.90
50606;DHT22;36557;53.572;10.170;2024-01-06T14:30:51;-0.80;99.90
50606;DHT22;36557;53.572;10.170;2024-01-06T14:33:17;-0.80;99.90
50606;DHT22;36557;53.572;10.170;2024-01-06T14:35:45;-0.80;99.90
50606;DHT22;36557;53.572;10.170;2024-01-06T14:38:12;-0.90;99.90
50606;DHT22;36557;53.572;10.170;2024-01-06T14:40:38;-0.90;99.90
50606;DHT22;36557;53.572;10.170;2024-01-06T14:43:04;-0.90;99.90
50606;DHT22;36557;53.572;10.170;2024-01-06T14:45:30;-0.90;99.90
50606;DHT22;36557;53.572;10.170;2024-01-06T14:47:56;-0.90;99.90
50606;DHT22;36557;53.572;10.170;2024-01-06T14:50:22;-0.80;99.90
50606;DHT22;36557;53.572;10.170;2024-01-06T14:52:48;-0.90;99.90
50606;DHT22;36557;53.572;10.170;2024-01-06T14:55:15;-0.90;99.90
50606;DHT22;36557;53.572;10.170;2024-01-06T14:57:41;-0.90;99.90
50606;DHT22;36557;53.572;10.170;2024-01-06T15:00:07;-0.90;99.90
50606;DHT22;36557;53.572;10.170;2024-01-06T15:02:39;-0.90;99.90
50606;DHT22;36557;53.572;10.170;2024-01-06T15:05:11;-1.00;99.90
50606;DHT22;36557;53.572;10.170;2024-01-06T15:07:37;-1.00;99.90
50606;DHT22;36557;53.572;10.170;2024-01-06T15:10:04;-0.90;99.90
50606;DHT22;36557;53.572;10.170;2024-01-06T15:12:31;-1.00;99.90